createdAt,value
2018-09-27T00:00:47.007Z,4.40
2018-09-27T00:03:15.391Z,4.40
2018-09-27T00:05:43.808Z,4.40
2018-09-27T00:08:12.204Z,4.40
2018-09-27T00:10:40.584Z,4.40
2018-09-27T00:13:09.040Z,4.40
2018-09-27T00:15:37.436Z,4.40
2018-09-27T00:18:05.829Z,4.40
2018-09-27T00:20:34.164Z,4.30
2018-09-27T00:23:02.514Z,4.40
2018-09-27T00:25:31.062Z,4.30
2018-09-27T00:27:59.571Z,4.30
2018-09-27T00:30:27.995Z,4.30
2018-09-27T00:32:56.388Z,4.30
2018-09-27T00:35:24.820Z,4.30
2018-09-27T00:37:53.213Z,4.30
2018-09-27T00:40:21.520Z,4.20
2018-09-27T00:42:49.932Z,4.30
2018-09-27T00:45:18.343Z,4.20
2018-09-27T00:47:47.436Z,4.20
2018-09-27T00:50:15.802Z,4.20
2018-09-27T00:52:44.230Z,4.20
2018-09-27T00:55:12.595Z,4.10
2018-09-27T00:57:40.886Z,4.10
2018-09-27T01:00:09.744Z,4.10
2018-09-27T01:02:38.211Z,4.10
2018-09-27T01:05:06.839Z,4.10
2018-09-27T01:07:35.220Z,4.10
2018-09-27T01:10:03.642Z,4.10
2018-09-27T01:12:31.972Z,4.10
2018-09-27T01:15:00.309Z,4.10
2018-09-27T01:17:28.736Z,4.00
2018-09-27T01:19:57.195Z,4.00
2018-09-27T01:22:25.556Z,4.00
2018-09-27T01:24:53.952Z,4.00
2018-09-27T01:27:22.299Z,4.00
2018-09-27T01:29:50.673Z,4.00
2018-09-27T01:32:19.065Z,4.00
2018-09-27T01:40:45.623Z,4.00
2018-09-27T01:43:14.064Z,4.00
2018-09-27T01:45:42.439Z,3.90
2018-09-27T01:48:10.852Z,3.90
2018-09-27T01:50:39.205Z,3.90
2018-09-27T01:53:07.531Z,3.80
2018-09-27T01:55:35.899Z,3.80
2018-09-27T01:58:04.292Z,3.80
2018-09-27T02:00:32.587Z,3.80
2018-09-27T02:03:00.963Z,3.80
2018-09-27T02:05:29.288Z,3.80
2018-09-27T02:07:57.615Z,3.80
2018-09-27T02:10:25.969Z,3.80
2018-09-27T02:12:54.396Z,3.80
2018-09-27T02:15:22.809Z,3.80
2018-09-27T02:17:51.229Z,3.70
2018-09-27T02:20:19.578Z,3.70
2018-09-27T02:22:47.954Z,3.80
2018-09-27T02:25:16.378Z,3.70
2018-09-27T02:27:44.740Z,3.70
2018-09-27T02:30:13.103Z,3.70
2018-09-27T02:32:41.422Z,3.80
2018-09-27T02:35:09.824Z,3.80
2018-09-27T02:37:38.301Z,3.80
2018-09-27T02:40:07.300Z,3.70
2018-09-27T02:42:35.641Z,3.70
2018-09-27T02:45:04.011Z,3.70
2018-09-27T02:47:32.436Z,3.70
2018-09-27T02:50:00.780Z,3.70
2018-09-27T02:52:29.215Z,3.70
2018-09-27T02:54:57.479Z,3.60
2018-09-27T02:57:25.796Z,3.60
2018-09-27T02:59:54.170Z,3.60
2018-09-27T03:02:22.615Z,3.60
2018-09-27T03:04:51.105Z,3.60
2018-09-27T03:07:19.519Z,3.60
2018-09-27T03:09:47.902Z,3.60
2018-09-27T03:12:16.289Z,3.60
2018-09-27T03:14:44.720Z,3.60
2018-09-27T03:17:13.248Z,3.60
2018-09-27T03:19:41.708Z,3.60
2018-09-27T03:22:10.096Z,3.60
2018-09-27T03:24:38.294Z,3.60
2018-09-27T03:27:06.454Z,3.60
2018-09-27T03:29:34.816Z,3.50
2018-09-27T03:32:03.118Z,3.50
2018-09-27T03:34:31.506Z,3.50
2018-09-27T03:36:59.840Z,3.40
2018-09-27T03:39:28.105Z,3.40
2018-09-27T03:41:56.383Z,3.40
2018-09-27T03:44:24.620Z,3.40
2018-09-27T03:46:52.835Z,3.30
2018-09-27T03:49:21.058Z,3.30
2018-09-27T03:51:49.283Z,3.30
2018-09-27T03:54:17.510Z,3.30
2018-09-27T03:56:45.811Z,3.30
2018-09-27T03:59:14.046Z,3.30
2018-09-27T04:01:42.248Z,3.30
2018-09-27T04:04:10.471Z,3.30
2018-09-27T04:06:38.741Z,3.30
2018-09-27T04:09:08.074Z,3.30
2018-09-27T04:11:36.336Z,3.30
2018-09-27T04:14:04.538Z,3.20
2018-09-27T04:16:32.788Z,3.20
2018-09-27T04:19:01.013Z,3.20
2018-09-27T04:21:29.187Z,3.20
2018-09-27T04:23:57.437Z,3.20
2018-09-27T04:26:25.638Z,3.20
2018-09-27T04:28:53.869Z,3.20
2018-09-27T04:31:22.050Z,3.10
2018-09-27T04:33:50.347Z,3.10
2018-09-27T04:36:18.528Z,3.10
2018-09-27T04:38:46.766Z,3.10
2018-09-27T04:41:15.034Z,3.10
2018-09-27T04:43:43.248Z,3.10
2018-09-27T04:46:11.459Z,3.10
2018-09-27T04:48:39.650Z,3.10
2018-09-27T04:51:07.930Z,3.20
2018-09-27T04:53:36.688Z,3.20
2018-09-27T04:56:05.104Z,3.20
2018-09-27T04:58:33.598Z,3.20
2018-09-27T05:01:02.103Z,3.10
2018-09-27T05:03:30.600Z,3.10
2018-09-27T05:05:59.138Z,3.10
2018-09-27T05:08:27.624Z,3.10
2018-09-27T05:10:56.208Z,3.10
2018-09-27T05:13:24.686Z,3.20
2018-09-27T05:15:53.231Z,3.20
2018-09-27T05:18:21.626Z,3.20
2018-09-27T05:20:50.114Z,3.20
2018-09-27T05:23:18.602Z,3.30
2018-09-27T05:25:47.023Z,3.30
2018-09-27T05:28:15.520Z,3.30
2018-09-27T05:30:44.045Z,3.40
2018-09-27T05:33:12.570Z,3.40
2018-09-27T05:35:41.051Z,3.40
2018-09-27T05:38:09.609Z,3.90
2018-09-27T05:40:38.045Z,5.10
2018-09-27T05:43:06.686Z,6.40
2018-09-27T05:45:35.172Z,7.90
2018-09-27T05:48:03.680Z,9.60
2018-09-27T05:50:32.109Z,11.10
2018-09-27T05:53:00.548Z,12.50
2018-09-27T05:55:29.024Z,13.70
2018-09-27T05:57:57.494Z,14.60
2018-09-27T06:00:25.883Z,15.60
2018-09-27T06:02:54.309Z,16.60
2018-09-27T06:05:22.695Z,17.50
2018-09-27T06:07:51.156Z,17.90
2018-09-27T06:10:19.567Z,18.40
2018-09-27T06:12:48.002Z,19.00
2018-09-27T06:15:16.347Z,19.80
2018-09-27T06:17:44.771Z,20.20
2018-09-27T06:20:13.263Z,20.90
2018-09-27T06:22:41.627Z,21.20
2018-09-27T06:25:09.984Z,21.40
2018-09-27T06:27:38.448Z,21.90
2018-09-27T06:30:06.879Z,22.50
2018-09-27T06:32:35.284Z,23.20
2018-09-27T06:35:03.883Z,24.00
2018-09-27T06:37:32.282Z,24.80
2018-09-27T06:40:00.746Z,24.90
2018-09-27T06:42:29.144Z,25.00
2018-09-27T06:45:00.980Z,25.50
2018-09-27T06:47:29.407Z,26.30
2018-09-27T06:49:57.807Z,26.70
2018-09-27T06:52:26.215Z,27.10
2018-09-27T06:54:54.727Z,27.60
2018-09-27T06:57:23.123Z,28.10
2018-09-27T06:59:51.528Z,28.20
2018-09-27T07:02:19.923Z,28.70
2018-09-27T07:04:48.382Z,29.40
2018-09-27T07:07:16.838Z,29.80
2018-09-27T07:09:45.240Z,30.40
2018-09-27T07:12:13.722Z,30.70
2018-09-27T07:14:42.182Z,31.40
2018-09-27T07:17:10.567Z,32.10
2018-09-27T07:19:38.933Z,32.70
2018-09-27T07:22:07.372Z,33.00
2018-09-27T07:24:35.778Z,33.20
2018-09-27T07:27:04.305Z,33.70
2018-09-27T07:29:32.659Z,34.20
2018-09-27T07:32:01.092Z,34.40
2018-09-27T07:34:29.601Z,33.70
2018-09-27T07:36:58.067Z,33.30
2018-09-27T07:39:26.487Z,32.80
2018-09-27T07:41:54.950Z,32.60
2018-09-27T07:44:23.414Z,32.70
2018-09-27T07:46:51.776Z,33.00
2018-09-27T07:49:20.199Z,32.90
2018-09-27T07:51:48.599Z,32.90
2018-09-27T07:54:17.040Z,33.10
2018-09-27T07:56:45.447Z,33.00
2018-09-27T07:59:13.855Z,33.60
2018-09-27T08:01:42.240Z,34.80
2018-09-27T08:04:10.752Z,34.90
2018-09-27T08:06:39.165Z,34.60
2018-09-27T08:09:10.008Z,34.10
2018-09-27T08:11:39.293Z,33.40
2018-09-27T08:14:08.047Z,33.60
2018-09-27T08:16:36.399Z,33.50
2018-09-27T08:19:04.799Z,33.70
2018-09-27T08:21:33.213Z,33.60
2018-09-27T08:24:01.615Z,33.70
2018-09-27T08:26:30.068Z,33.40
2018-09-27T08:28:58.460Z,33.60
2018-09-27T08:31:26.891Z,33.50
2018-09-27T08:33:55.265Z,33.40
2018-09-27T08:36:23.699Z,33.20
2018-09-27T08:38:52.152Z,33.30
2018-09-27T08:41:20.560Z,33.40
2018-09-27T08:43:48.948Z,33.20
2018-09-27T08:46:17.481Z,33.40
2018-09-27T08:48:45.903Z,33.70
2018-09-27T08:51:14.339Z,34.10
2018-09-27T08:53:42.839Z,33.40
2018-09-27T08:56:11.231Z,33.00
2018-09-27T08:58:39.631Z,33.20
2018-09-27T09:01:08.005Z,33.10
2018-09-27T09:03:36.556Z,33.50
2018-09-27T09:06:06.000Z,33.90
2018-09-27T09:08:34.420Z,33.80
2018-09-27T09:11:08.357Z,33.70
2018-09-27T09:13:36.854Z,34.00
2018-09-27T09:16:05.447Z,34.10
2018-09-27T09:18:34.216Z,34.10
2018-09-27T09:21:03.011Z,34.70
2018-09-27T09:23:31.500Z,35.30
2018-09-27T09:25:59.938Z,35.40
2018-09-27T09:28:28.343Z,35.60
2018-09-27T09:30:56.784Z,35.00
2018-09-27T09:33:25.490Z,34.90
2018-09-27T09:35:53.904Z,35.30
2018-09-27T09:38:22.329Z,35.70
2018-09-27T09:40:50.686Z,35.50
2018-09-27T09:43:18.991Z,35.20
2018-09-27T09:45:47.406Z,34.80
2018-09-27T09:48:15.826Z,34.60
2018-09-27T09:50:44.397Z,34.40
2018-09-27T09:53:12.852Z,34.10
2018-09-27T09:55:41.270Z,33.90
2018-09-27T09:58:09.611Z,33.70
2018-09-27T10:00:38.544Z,33.40
2018-09-27T10:03:07.987Z,33.00
2018-09-27T10:05:36.466Z,32.90
2018-09-27T10:08:04.980Z,32.40
2018-09-27T10:10:33.369Z,32.20
2018-09-27T10:13:01.847Z,32.30
2018-09-27T10:15:30.237Z,32.50
2018-09-27T10:17:58.696Z,32.80
2018-09-27T10:20:27.103Z,33.10
2018-09-27T10:22:55.536Z,33.30
2018-09-27T10:25:23.947Z,32.80
2018-09-27T10:27:52.337Z,32.60
2018-09-27T10:30:20.739Z,32.30
2018-09-27T10:32:49.296Z,31.80
2018-09-27T10:35:17.734Z,31.50
2018-09-27T10:37:46.210Z,31.80
2018-09-27T10:40:14.673Z,32.40
2018-09-27T10:42:43.071Z,33.00
2018-09-27T10:45:11.449Z,32.70
2018-09-27T10:47:39.834Z,32.20
2018-09-27T10:50:15.948Z,31.70
2018-09-27T10:52:44.228Z,31.60
2018-09-27T10:55:23.303Z,31.40
2018-09-27T10:57:51.741Z,31.40
2018-09-27T11:00:23.183Z,31.70
2018-09-27T11:02:52.404Z,32.10
2018-09-27T11:05:20.842Z,32.40
2018-09-27T11:07:52.945Z,32.20
2018-09-27T11:10:21.277Z,31.90
2018-09-27T11:12:49.672Z,31.30
2018-09-27T11:15:18.093Z,31.20
2018-09-27T11:17:46.489Z,30.90
2018-09-27T11:20:14.824Z,30.70
2018-09-27T11:22:43.132Z,30.20
2018-09-27T11:25:11.431Z,29.70
2018-09-27T11:27:39.816Z,29.50
2018-09-27T11:30:13.408Z,29.40
2018-09-27T11:32:43.603Z,29.30
2018-09-27T11:35:11.984Z,29.10
2018-09-27T11:37:40.313Z,28.90
2018-09-27T11:40:09.842Z,28.80
2018-09-27T11:42:38.817Z,28.60
2018-09-27T11:45:07.351Z,28.30
2018-09-27T11:47:35.786Z,28.20
2018-09-27T11:50:04.133Z,28.20
2018-09-27T11:52:32.488Z,28.20
2018-09-27T11:55:00.877Z,28.20
2018-09-27T11:57:29.415Z,28.30
2018-09-27T11:59:57.721Z,28.40
2018-09-27T12:02:26.113Z,28.60
2018-09-27T12:04:54.580Z,28.80
2018-09-27T12:07:23.216Z,28.80
2018-09-27T12:09:51.653Z,28.60
2018-09-27T12:12:22.389Z,28.30
2018-09-27T12:14:50.693Z,28.10
2018-09-27T12:17:18.978Z,27.90
2018-09-27T12:19:47.493Z,27.70
2018-09-27T12:22:15.941Z,27.50
2018-09-27T12:24:44.281Z,27.40
2018-09-27T12:27:12.692Z,27.40
2018-09-27T12:29:41.091Z,27.40
2018-09-27T12:32:09.395Z,27.30
2018-09-27T12:34:37.980Z,27.30
2018-09-27T12:37:06.527Z,27.30
2018-09-27T12:39:34.962Z,27.20
2018-09-27T12:42:03.422Z,27.00
2018-09-27T12:44:31.547Z,26.90
2018-09-27T12:46:59.938Z,26.80
2018-09-27T12:49:28.232Z,26.70
2018-09-27T12:51:56.802Z,26.60
2018-09-27T12:54:24.850Z,26.30
2018-09-27T12:56:53.151Z,26.10
2018-09-27T12:59:21.473Z,25.90
2018-09-27T13:01:49.882Z,25.60
2018-09-27T13:04:18.157Z,25.20
2018-09-27T13:06:46.484Z,24.80
2018-09-27T13:09:15.069Z,24.60
2018-09-27T13:11:43.315Z,24.40
2018-09-27T13:14:11.644Z,24.10
2018-09-27T13:16:39.975Z,23.90
2018-09-27T13:19:08.354Z,23.60
2018-09-27T13:21:36.650Z,23.20
2018-09-27T13:24:05.011Z,23.00
2018-09-27T13:26:33.525Z,22.70
2018-09-27T13:29:01.880Z,22.50
2018-09-27T13:31:30.300Z,22.20
2018-09-27T13:33:58.704Z,22.00
2018-09-27T13:36:27.105Z,21.80
2018-09-27T13:38:55.496Z,21.60
2018-09-27T13:41:23.906Z,21.50
2018-09-27T13:43:52.237Z,21.40
2018-09-27T13:46:20.652Z,21.40
2018-09-27T13:48:48.968Z,21.40
2018-09-27T13:51:17.344Z,21.40
2018-09-27T13:53:45.792Z,21.40
2018-09-27T13:56:15.508Z,21.30
2018-09-27T13:58:43.887Z,21.20
2018-09-27T14:01:12.354Z,21.20
2018-09-27T14:03:40.721Z,21.10
2018-09-27T14:06:09.053Z,21.10
2018-09-27T14:08:37.444Z,21.10
2018-09-27T14:11:05.873Z,21.00
2018-09-27T14:13:34.256Z,21.00
2018-09-27T14:16:02.546Z,20.90
2018-09-27T14:18:30.951Z,20.80
2018-09-27T14:20:59.238Z,20.80
2018-09-27T14:23:27.622Z,20.80
2018-09-27T14:25:55.989Z,20.80
2018-09-27T14:28:24.415Z,20.70
2018-09-27T14:30:52.844Z,20.70
2018-09-27T14:33:21.226Z,20.70
2018-09-27T14:35:49.571Z,20.70
2018-09-27T14:38:17.871Z,20.70
2018-09-27T14:40:46.243Z,20.70
2018-09-27T14:43:14.602Z,20.70
2018-09-27T14:45:42.952Z,20.60
2018-09-27T14:48:11.352Z,20.60
2018-09-27T14:50:39.788Z,20.60
2018-09-27T14:53:08.089Z,20.60
2018-09-27T14:55:36.421Z,20.60
2018-09-27T14:58:04.862Z,20.50
2018-09-27T15:00:33.252Z,20.50
2018-09-27T15:03:01.608Z,20.50
2018-09-27T15:05:33.843Z,20.50
2018-09-27T15:08:02.196Z,20.50
2018-09-27T15:10:30.560Z,20.50
2018-09-27T15:12:58.899Z,20.40
2018-09-27T15:15:27.295Z,20.40
2018-09-27T15:17:55.712Z,20.40
2018-09-27T15:20:24.046Z,20.40
2018-09-27T15:22:52.351Z,20.30
2018-09-27T15:25:20.753Z,20.30
2018-09-27T15:27:49.524Z,20.30
2018-09-27T15:30:17.875Z,20.30
2018-09-27T15:32:46.236Z,20.30
2018-09-27T15:35:14.605Z,20.20
2018-09-27T15:37:42.985Z,20.20
2018-09-27T15:40:11.394Z,20.10
2018-09-27T15:42:39.746Z,20.00
2018-09-27T15:45:08.091Z,20.00
2018-09-27T15:47:36.523Z,20.00
2018-09-27T15:50:04.989Z,20.00
2018-09-27T15:52:33.383Z,19.90
2018-09-27T15:55:01.697Z,19.90
2018-09-27T15:57:30.027Z,19.80
2018-09-27T15:59:58.384Z,19.80
2018-09-27T16:02:26.794Z,19.70
2018-09-27T16:04:55.228Z,19.70
2018-09-27T16:07:23.563Z,19.60
2018-09-27T16:09:51.945Z,19.50
2018-09-27T16:12:20.262Z,19.40
2018-09-27T16:14:48.695Z,19.20
2018-09-27T16:17:17.069Z,19.10
2018-09-27T16:19:45.463Z,19.00
2018-09-27T16:22:13.969Z,18.80
2018-09-27T16:24:42.385Z,18.70
2018-09-27T16:27:10.787Z,18.50
2018-09-27T16:29:39.144Z,18.40
2018-09-27T16:32:07.548Z,18.20
2018-09-27T16:34:35.896Z,18.10
2018-09-27T16:37:04.273Z,17.80
2018-09-27T16:39:32.723Z,17.60
2018-09-27T16:42:01.159Z,17.40
2018-09-27T16:44:29.491Z,17.20
2018-09-27T16:46:57.814Z,17.00
2018-09-27T16:49:26.139Z,16.90
2018-09-27T16:51:54.515Z,16.70
2018-09-27T16:54:22.900Z,16.50
2018-09-27T16:56:51.329Z,16.30
2018-09-27T16:59:24.818Z,16.20
2018-09-27T17:01:53.291Z,16.00
2018-09-27T17:04:21.651Z,15.80
2018-09-27T17:06:49.968Z,15.70
2018-09-27T17:09:18.369Z,15.60
2018-09-27T17:11:46.909Z,15.50
2018-09-27T17:14:15.328Z,15.40
2018-09-27T17:16:43.831Z,15.30
2018-09-27T17:19:12.225Z,15.20
2018-09-27T17:21:40.677Z,15.10
2018-09-27T17:24:09.095Z,15.00
2018-09-27T17:26:37.520Z,14.90
2018-09-27T17:29:05.915Z,14.80
2018-09-27T17:31:34.309Z,14.70
2018-09-27T17:34:02.813Z,14.60
2018-09-27T17:36:31.190Z,14.50
2018-09-27T17:38:59.564Z,14.40
2018-09-27T17:41:27.995Z,14.30
2018-09-27T17:43:56.400Z,14.30
2018-09-27T17:46:24.787Z,14.20
2018-09-27T17:48:53.169Z,14.00
2018-09-27T17:51:21.495Z,13.90
2018-09-27T17:53:49.884Z,13.80
2018-09-27T17:56:18.244Z,13.70
2018-09-27T17:58:46.789Z,13.70
2018-09-27T18:01:15.096Z,13.60
2018-09-27T18:03:43.517Z,13.50
2018-09-27T18:06:11.946Z,13.50
2018-09-27T18:08:40.345Z,13.40
2018-09-27T18:11:08.708Z,13.30
2018-09-27T18:13:37.202Z,13.20
2018-09-27T18:16:05.581Z,13.10
2018-09-27T18:18:33.997Z,13.00
2018-09-27T18:21:02.364Z,13.00
2018-09-27T18:23:30.761Z,12.90
2018-09-27T18:25:59.146Z,12.80
2018-09-27T18:28:27.540Z,12.80
2018-09-27T18:30:55.909Z,12.70
2018-09-27T18:33:24.372Z,12.60
2018-09-27T18:35:52.834Z,12.50
2018-09-27T18:38:21.230Z,12.50
2018-09-27T18:40:49.605Z,12.40
2018-09-27T18:43:18.134Z,12.40
2018-09-27T18:45:46.501Z,12.30
2018-09-27T18:48:14.939Z,12.20
2018-09-27T18:50:43.301Z,12.20
2018-09-27T18:53:11.796Z,12.10
2018-09-27T18:55:40.119Z,12.00
2018-09-27T18:58:08.438Z,11.90
2018-09-27T19:00:36.834Z,11.90
2018-09-27T19:03:05.232Z,11.80
2018-09-27T19:05:33.620Z,11.80
2018-09-27T19:08:02.020Z,11.70
2018-09-27T19:10:30.392Z,11.60
2018-09-27T19:12:58.823Z,11.60
2018-09-27T19:15:27.245Z,11.60
2018-09-27T19:17:55.625Z,11.50
2018-09-27T19:20:24.131Z,11.50
2018-09-27T19:22:52.538Z,11.40
2018-09-27T19:25:20.975Z,11.30
2018-09-27T19:27:49.355Z,11.30
2018-09-27T19:30:17.772Z,11.20
2018-09-27T19:32:46.169Z,11.20
2018-09-27T19:35:14.593Z,11.20
2018-09-27T19:37:43.059Z,11.10
2018-09-27T19:40:11.500Z,11.00
2018-09-27T19:42:39.972Z,11.00
2018-09-27T19:45:08.438Z,10.90
2018-09-27T19:47:36.817Z,10.90
2018-09-27T19:50:05.280Z,10.80
2018-09-27T19:52:33.684Z,10.80
2018-09-27T19:55:02.063Z,10.70
2018-09-27T19:57:30.454Z,10.70
2018-09-27T19:59:58.864Z,10.70
2018-09-27T20:02:27.275Z,10.60
2018-09-27T20:04:55.659Z,10.60
2018-09-27T20:07:24.183Z,10.50
2018-09-27T20:09:52.626Z,10.50
2018-09-27T20:12:21.023Z,10.40
2018-09-27T20:14:49.350Z,10.40
2018-09-27T20:17:33.682Z,10.40
2018-09-27T20:20:02.079Z,10.30
2018-09-27T20:22:30.495Z,10.30
2018-09-27T20:24:58.836Z,10.20
2018-09-27T20:27:27.218Z,10.20
2018-09-27T20:29:55.617Z,10.10
2018-09-27T20:32:24.016Z,10.10
2018-09-27T20:34:52.390Z,10.00
2018-09-27T20:37:20.730Z,10.00
2018-09-27T20:39:49.176Z,10.00
2018-09-27T20:42:17.587Z,9.90
2018-09-27T20:44:45.929Z,9.90
2018-09-27T20:47:14.317Z,9.90
2018-09-27T20:49:42.743Z,9.90
2018-09-27T20:52:11.177Z,9.80
2018-09-27T20:54:39.584Z,9.80
2018-09-27T20:57:08.275Z,9.80
2018-09-27T20:59:36.710Z,9.80
2018-09-27T21:02:05.088Z,9.70
2018-09-27T21:04:33.504Z,9.60
2018-09-27T21:07:02.735Z,9.60
2018-09-27T21:09:31.092Z,9.50
2018-09-27T21:11:59.466Z,9.50
2018-09-27T21:14:27.876Z,9.50
2018-09-27T21:16:56.305Z,9.40
2018-09-27T21:19:24.796Z,9.40
2018-09-27T21:21:53.096Z,9.40
2018-09-27T21:24:21.505Z,9.30
2018-09-27T21:26:49.931Z,9.30
2018-09-27T21:29:18.313Z,9.20
2018-09-27T21:31:46.729Z,9.20
2018-09-27T21:34:15.125Z,9.10
2018-09-27T21:36:43.500Z,9.10
2018-09-27T21:39:11.812Z,9.10
2018-09-27T21:41:40.225Z,9.00
2018-09-27T21:44:08.675Z,9.00
2018-09-27T21:46:37.072Z,8.90
2018-09-27T21:49:05.489Z,8.90
2018-09-27T21:51:33.852Z,8.90
2018-09-27T21:54:02.264Z,8.80
2018-09-27T21:56:30.729Z,8.80
2018-09-27T21:58:59.109Z,8.80
2018-09-27T22:01:27.456Z,8.80
2018-09-27T22:03:55.875Z,8.70
2018-09-27T22:06:24.252Z,8.70
2018-09-27T22:08:52.637Z,8.70
2018-09-27T22:11:21.022Z,8.60
2018-09-27T22:13:49.397Z,8.60
2018-09-27T22:16:17.769Z,8.50
2018-09-27T22:18:46.159Z,8.50
2018-09-27T22:21:14.577Z,8.50
2018-09-27T22:23:43.012Z,8.40
2018-09-27T22:26:11.399Z,8.30
2018-09-27T22:28:39.795Z,8.30
2018-09-27T22:31:08.131Z,8.20
2018-09-27T22:33:36.511Z,8.20
2018-09-27T22:36:04.980Z,8.20
2018-09-27T22:38:33.393Z,8.10
2018-09-27T22:41:01.795Z,8.10
2018-09-27T22:43:30.241Z,8.00
2018-09-27T22:45:58.636Z,8.00
2018-09-27T22:48:27.069Z,8.00
2018-09-27T22:51:12.053Z,8.00
2018-09-27T22:53:40.493Z,8.00
2018-09-27T22:56:08.980Z,7.90
2018-09-27T22:58:37.327Z,7.90
2018-09-27T23:01:05.720Z,7.90
2018-09-27T23:03:34.088Z,7.80
2018-09-27T23:06:02.545Z,7.80
2018-09-27T23:08:30.920Z,7.80
2018-09-27T23:10:59.276Z,7.80
2018-09-27T23:13:27.708Z,7.80
2018-09-27T23:15:56.101Z,7.70
2018-09-27T23:18:24.555Z,7.70
2018-09-27T23:20:52.979Z,7.70
2018-09-27T23:23:21.389Z,7.70
2018-09-27T23:25:49.823Z,7.60
2018-09-27T23:28:18.258Z,7.60
2018-09-27T23:30:46.667Z,7.50
2018-09-27T23:33:15.026Z,7.50
2018-09-27T23:35:43.437Z,7.40
2018-09-27T23:38:11.829Z,7.30
2018-09-27T23:40:40.285Z,7.30
2018-09-27T23:43:08.731Z,7.30
2018-09-27T23:45:37.180Z,7.20
2018-09-27T23:48:05.553Z,7.20
2018-09-27T23:50:34.025Z,7.20
2018-09-27T23:53:02.424Z,7.10
2018-09-27T23:55:30.872Z,7.10
2018-09-27T23:57:59.303Z,7.10
